Terminal Aerodrome Forecast
Issued by NWS

Home | Current Version | Previous Version | Text Only | Print | Product List | Glossary On
Versions: 1 2 3 4 5 6 7 8 9 10 11 12 13 14
000
FTUS46 KMTR 022336
TAFSTS
TAF
KSTS 022336Z 0300/0324 19011KT P6SM SCT250
     FM030300 19004KT P6SM FEW250
      TEMPO 0307/0310 BKN007
     FM031000 00000KT P6SM OVC008
     FM031700 19007KT P6SM FEW250=

USA.gov is the U.S. government's official web portal to all federal, state and local government web resources and services.